createdAt,value
2019-04-26T00:01:31.182Z,100254.06
2019-04-26T00:04:02.825Z,100253.16
2019-04-26T00:06:34.231Z,100246.92
2019-04-26T00:09:33.094Z,100236.68
2019-04-26T00:12:22.833Z,100235.78
2019-04-26T00:15:14.289Z,100235.78
2019-04-26T00:17:49.009Z,100237.11
2019-04-26T00:20:21.109Z,100236.20
2019-04-26T00:22:52.417Z,100237.97
2019-04-26T00:25:23.637Z,100231.30
2019-04-26T00:27:54.944Z,100236.17
2019-04-26T00:30:27.221Z,100233.94
2019-04-26T00:32:58.419Z,100230.83
2019-04-26T00:35:29.599Z,100239.73
2019-04-26T00:38:00.761Z,100237.03
2019-04-26T00:40:32.180Z,100231.69
2019-04-26T00:43:03.971Z,100236.59
2019-04-26T00:45:35.672Z,100226.78
2019-04-26T00:48:07.942Z,100234.32
2019-04-26T00:50:39.190Z,100226.75
2019-04-26T00:53:10.535Z,100220.08
2019-04-26T00:55:41.947Z,100215.64
2019-04-26T00:58:13.718Z,100212.06
2019-04-26T01:00:46.522Z,100213.83
2019-04-26T01:03:18.732Z,100217.83
2019-04-26T01:05:59.531Z,100218.70
2019-04-26T01:08:23.437Z,100215.16
2019-04-26T01:10:54.815Z,100215.59
2019-04-26T01:13:27.613Z,100212.02
2019-04-26T01:16:00.086Z,100211.95
2019-04-26T01:18:31.447Z,100204.84
2019-04-26T01:21:04.152Z,100202.13
2019-04-26T01:23:37.880Z,100199.03
2019-04-26T01:26:14.307Z,100195.89
2019-04-26T01:28:56.287Z,100190.55
2019-04-26T01:31:29.328Z,100193.22
2019-04-26T01:34:00.506Z,100192.75
2019-04-26T01:36:32.049Z,100188.31
2019-04-26T01:39:14.625Z,100190.03
2019-04-26T01:41:51.254Z,100190.93
2019-04-26T01:44:46.758Z,100190.03
2019-04-26T01:47:18.541Z,100189.13
2019-04-26T01:49:49.953Z,100193.55
2019-04-26T01:52:22.407Z,100192.64
2019-04-26T01:54:53.803Z,100199.73
2019-04-26T01:57:27.278Z,100193.06
2019-04-26T02:00:04.428Z,100187.25
2019-04-26T02:03:00.641Z,100196.57
2019-04-26T02:05:32.026Z,100200.99
2019-04-26T02:08:03.292Z,100196.52
2019-04-26T02:10:34.406Z,100192.94
2019-04-26T02:13:06.619Z,100185.38
2019-04-26T02:15:37.979Z,100180.46
2019-04-26T02:18:09.270Z,100183.12
2019-04-26T02:21:06.358Z,100184.87
2019-04-26T02:23:55.458Z,100182.63
2019-04-26T02:26:34.826Z,100183.03
2019-04-26T02:29:10.896Z,100181.66
2019-04-26T02:31:43.406Z,100177.22
2019-04-26T02:34:14.777Z,100174.08
2019-04-26T02:36:57.234Z,100173.16
2019-04-26T02:39:20.951Z,100171.78
2019-04-26T02:41:55.018Z,100173.95
2019-04-26T02:44:34.508Z,100180.56
2019-04-26T02:47:44.787Z,100176.12
2019-04-26T02:50:25.021Z,100180.53
2019-04-26T02:53:37.485Z,100189.80
2019-04-26T02:56:38.274Z,100200.38
2019-04-26T02:59:31.755Z,100208.58
2019-04-26T03:02:05.011Z,100211.95
2019-04-26T03:04:39.492Z,100210.52
2019-04-26T03:07:18.807Z,100206.00
2019-04-26T03:09:51.809Z,100197.58
2019-04-26T03:12:26.897Z,100209.98
2019-04-26T03:15:13.951Z,100213.50
2019-04-26T03:17:57.126Z,100212.58
2019-04-26T03:20:38.247Z,100212.58
2019-04-26T03:23:18.031Z,100213.03
2019-04-26T03:26:13.635Z,100212.54
2019-04-26T03:28:51.699Z,100211.64
2019-04-26T03:31:46.082Z,100210.73
2019-04-26T03:34:43.382Z,100206.67
2019-04-26T03:37:39.844Z,100209.76
2019-04-26T03:40:34.578Z,100200.88
2019-04-26T03:43:41.213Z,100196.01
2019-04-26T03:46:37.741Z,100204.39
2019-04-26T03:49:41.423Z,100214.53
2019-04-26T03:52:37.444Z,100205.14
2019-04-26T03:55:36.390Z,100211.78
2019-04-26T03:58:13.120Z,100207.73
2019-04-26T04:00:52.370Z,100209.41
2019-04-26T04:03:57.533Z,100216.44
2019-04-26T04:06:30.843Z,100221.18
2019-04-26T04:09:08.042Z,100215.67
2019-04-26T04:12:10.006Z,100215.20
2019-04-26T04:14:53.127Z,100218.22
2019-04-26T04:17:52.271Z,100224.80
2019-04-26T04:20:41.027Z,100250.84
2019-04-26T04:23:39.766Z,100254.67
2019-04-26T04:26:12.409Z,100252.31
2019-04-26T04:29:05.880Z,100255.09
2019-04-26T04:31:43.593Z,100254.43
2019-04-26T04:34:23.390Z,100254.22
2019-04-26T04:36:57.582Z,100261.93
2019-04-26T04:39:55.013Z,100261.33
2019-04-26T04:42:54.300Z,100259.80
2019-04-26T04:46:03.446Z,100265.23
2019-04-26T04:49:10.021Z,100271.17
2019-04-26T04:52:09.202Z,100268.20
2019-04-26T04:54:43.242Z,100272.96
2019-04-26T04:57:22.031Z,100273.33
2019-04-26T05:00:54.578Z,100273.27
2019-04-26T05:03:37.711Z,100271.44
2019-04-26T05:06:25.220Z,100273.89
2019-04-26T05:08:59.051Z,100276.09
2019-04-26T05:11:36.420Z,100276.98
2019-04-26T05:14:30.150Z,100269.04
2019-04-26T05:17:34.804Z,100276.98
2019-04-26T05:20:31.765Z,100282.20
2019-04-26T05:23:47.146Z,100290.15
2019-04-26T05:27:05.137Z,100306.83
2019-04-26T05:30:22.572Z,100315.89
2019-04-26T05:33:34.871Z,100303.45
2019-04-26T05:36:24.626Z,100310.11
2019-04-26T05:39:26.081Z,100319.38
2019-04-26T05:42:31.700Z,100318.02
2019-04-26T05:45:37.177Z,100308.75
2019-04-26T05:48:33.903Z,100318.92
2019-04-26T05:51:39.371Z,100325.61
2019-04-26T05:54:42.298Z,100323.96
2019-04-26T05:57:52.675Z,100330.74
2019-04-26T06:00:53.697Z,100329.48
2019-04-26T06:04:13.742Z,100345.05
2019-04-26T06:06:59.341Z,100340.74
2019-04-26T06:10:22.993Z,100341.64
2019-04-26T06:13:42.432Z,100351.89
2019-04-26T06:17:05.997Z,100343.94
2019-04-26T06:20:00.770Z,100345.20
2019-04-26T06:22:38.315Z,100349.69
2019-04-26T06:25:37.529Z,100349.75
2019-04-26T06:28:32.765Z,100346.32
2019-04-26T06:31:12.859Z,100353.91
2019-04-26T06:33:56.613Z,100341.52
2019-04-26T06:36:36.557Z,100343.36
2019-04-26T06:39:29.072Z,100333.66
2019-04-26T06:42:37.431Z,100337.80
2019-04-26T06:45:40.846Z,100344.09
2019-04-26T06:48:26.130Z,100337.59
2019-04-26T06:51:09.006Z,100347.03
2019-04-26T06:53:57.134Z,100353.41
2019-04-26T06:56:42.513Z,100362.89
2019-04-26T06:59:39.435Z,100356.31
2019-04-26T07:02:26.047Z,100365.81
2019-04-26T07:05:20.904Z,100374.26
2019-04-26T07:08:23.691Z,100360.62
2019-04-26T07:11:36.733Z,100351.49
2019-04-26T07:14:50.865Z,100348.94
2019-04-26T07:17:38.787Z,100360.64
2019-04-26T07:20:22.027Z,100356.83
2019-04-26T07:23:24.013Z,100366.78
2019-04-26T07:26:52.794Z,100358.09
2019-04-26T07:30:12.729Z,100355.13
2019-04-26T07:33:22.671Z,100367.23
2019-04-26T07:36:22.456Z,100370.41
2019-04-26T07:39:37.462Z,100370.45
2019-04-26T07:42:52.587Z,100377.15
2019-04-26T07:46:18.949Z,100372.28
2019-04-26T07:49:02.838Z,100362.62
2019-04-26T07:52:13.066Z,100356.98
2019-04-26T07:55:24.480Z,100362.85
2019-04-26T07:58:35.367Z,100362.83
2019-04-26T08:01:39.122Z,100381.61
2019-04-26T08:04:18.101Z,100391.88
2019-04-26T08:06:55.683Z,100394.69
2019-04-26T08:09:27.790Z,100394.82
2019-04-26T08:12:06.063Z,100400.17
2019-04-26T08:15:13.746Z,100392.22
2019-04-26T08:17:55.502Z,100401.19
2019-04-26T08:20:44.303Z,100403.00
2019-04-26T08:23:37.818Z,100401.72
2019-04-26T08:25:55.840Z,100408.80
2019-04-26T08:28:27.859Z,100405.72
2019-04-26T08:31:00.620Z,100414.97
2019-04-26T08:33:48.245Z,100418.52
2019-04-26T08:36:14.739Z,100424.35
2019-04-26T08:38:48.763Z,100435.54
2019-04-26T08:41:21.480Z,100429.81
2019-04-26T08:44:18.263Z,100443.19
2019-04-26T08:47:14.076Z,100445.07
2019-04-26T08:50:01.104Z,100449.59
2019-04-26T08:52:35.025Z,100441.20
2019-04-26T08:55:07.351Z,100443.54
2019-04-26T08:57:41.430Z,100433.87
2019-04-26T09:00:43.039Z,100429.50
2019-04-26T09:03:32.536Z,100421.59
2019-04-26T09:06:23.765Z,100415.88
2019-04-26T09:08:56.525Z,100418.13
2019-04-26T09:11:33.449Z,100403.51
2019-04-26T09:14:05.202Z,100411.59
2019-04-26T09:16:49.645Z,100410.30
2019-04-26T09:19:09.980Z,100409.47
2019-04-26T09:21:51.851Z,100401.98
2019-04-26T09:24:38.694Z,100408.73
2019-04-26T09:27:24.709Z,100417.19
2019-04-26T09:30:18.315Z,100416.34
2019-04-26T09:33:11.596Z,100424.35
2019-04-26T09:35:43.352Z,100414.53
2019-04-26T09:38:14.775Z,100414.53
2019-04-26T09:40:46.543Z,100430.24
2019-04-26T09:43:24.154Z,100435.56
2019-04-26T09:46:32.929Z,100444.95
2019-04-26T09:49:21.748Z,100444.53
2019-04-26T09:51:53.819Z,100452.98
2019-04-26T09:54:25.576Z,100461.88
2019-04-26T09:56:57.138Z,100462.38
2019-04-26T09:59:29.133Z,100463.30
2019-04-26T10:02:01.024Z,100454.94
2019-04-26T10:04:34.081Z,100452.42
2019-04-26T10:07:05.799Z,100448.53
2019-04-26T10:09:37.316Z,100449.55
2019-04-26T10:12:31.275Z,100446.50
2019-04-26T10:15:16.844Z,100452.39
2019-04-26T10:17:50.180Z,100444.52
2019-04-26T10:20:21.998Z,100427.75
2019-04-26T10:22:53.760Z,100427.75
2019-04-26T10:25:25.168Z,100432.25
2019-04-26T10:27:56.412Z,100440.32
2019-04-26T10:30:27.764Z,100436.82
2019-04-26T10:33:02.150Z,100432.88
2019-04-26T10:35:32.170Z,100427.17
2019-04-26T10:38:03.447Z,100431.23
2019-04-26T10:40:35.881Z,100442.82
2019-04-26T10:43:09.008Z,100465.10
2019-04-26T10:45:40.355Z,100446.87
2019-04-26T10:48:13.919Z,100445.97
2019-04-26T10:50:44.422Z,100441.06
2019-04-26T10:53:30.556Z,100446.45
2019-04-26T10:56:25.333Z,100446.97
2019-04-26T10:59:06.047Z,100441.20
2019-04-26T11:01:38.542Z,100445.73
2019-04-26T11:04:10.714Z,100440.39
2019-04-26T11:06:42.033Z,100441.77
2019-04-26T11:09:13.380Z,100444.91
2019-04-26T11:11:44.806Z,100449.86
2019-04-26T11:14:18.509Z,100458.34
2019-04-26T11:16:50.075Z,100451.63
2019-04-26T11:19:21.245Z,100455.20
2019-04-26T11:21:54.902Z,100455.67
2019-04-26T11:24:25.381Z,100456.58
2019-04-26T11:26:56.571Z,100461.92
2019-04-26T11:29:28.834Z,100461.02
2019-04-26T11:32:02.688Z,100462.36
2019-04-26T11:34:33.590Z,100471.28
2019-04-26T11:37:04.806Z,100464.13
2019-04-26T11:39:36.711Z,100469.00
2019-04-26T11:42:11.740Z,100459.17
2019-04-26T11:44:44.390Z,100459.64
2019-04-26T11:47:14.955Z,100459.64
2019-04-26T11:49:46.160Z,100452.09
2019-04-26T11:52:17.408Z,100454.34
2019-04-26T11:54:51.285Z,100459.72
2019-04-26T11:57:21.763Z,100460.65
2019-04-26T11:59:53.163Z,100459.77
2019-04-26T12:02:24.566Z,100460.73
2019-04-26T12:05:23.623Z,100465.64
2019-04-26T12:08:02.099Z,100466.98
2019-04-26T12:10:33.469Z,100473.20
2019-04-26T12:13:05.750Z,100472.79
2019-04-26T12:15:39.082Z,100461.20
2019-04-26T12:18:11.159Z,100470.14
2019-04-26T12:20:42.489Z,100478.14
2019-04-26T12:23:20.408Z,100488.38
2019-04-26T12:25:48.239Z,100487.48
2019-04-26T12:28:19.713Z,100487.42
2019-04-26T12:30:54.318Z,100488.73
2019-04-26T12:33:23.885Z,100505.17
2019-04-26T12:35:57.116Z,100516.25
2019-04-26T12:38:29.931Z,100522.84
2019-04-26T12:41:01.258Z,100523.59
2019-04-26T12:43:32.581Z,100522.67
2019-04-26T12:46:42.026Z,100519.53
2019-04-26T12:49:13.292Z,100526.26
2019-04-26T12:51:47.291Z,100527.70
2019-04-26T12:54:17.730Z,100541.64
2019-04-26T12:56:49.040Z,100544.59
2019-04-26T12:59:22.480Z,100553.14
2019-04-26T13:02:05.099Z,100562.75
2019-04-26T13:04:36.049Z,100560.55
2019-04-26T13:07:10.059Z,100551.34
2019-04-26T13:09:43.704Z,100549.34
2019-04-26T13:12:29.844Z,100557.71
2019-04-26T13:15:46.190Z,100559.30
2019-04-26T13:18:16.725Z,100557.03
2019-04-26T13:20:48.128Z,100559.11
2019-04-26T13:23:19.516Z,100544.73
2019-04-26T13:25:50.952Z,100557.27
2019-04-26T13:28:22.276Z,100551.30
2019-04-26T13:30:53.546Z,100554.92
2019-04-26T13:33:27.393Z,100551.46
2019-04-26T13:36:05.148Z,100551.45
2019-04-26T13:38:31.945Z,100538.41
2019-04-26T13:41:04.634Z,100538.41
2019-04-26T13:43:36.241Z,100545.40
2019-04-26T13:46:38.750Z,100535.31
2019-04-26T13:49:37.881Z,100519.72
2019-04-26T13:52:09.260Z,100522.88
2019-04-26T13:54:40.447Z,100517.98
2019-04-26T13:57:11.807Z,100532.27
2019-04-26T13:59:42.982Z,100534.85
2019-04-26T14:02:14.310Z,100530.77
2019-04-26T14:04:45.647Z,100535.63
2019-04-26T14:07:20.123Z,100527.03
2019-04-26T14:09:49.726Z,100542.98
2019-04-26T14:12:20.945Z,100551.38
2019-04-26T14:14:52.112Z,100561.54
2019-04-26T14:17:25.969Z,100551.20
2019-04-26T14:19:56.279Z,100549.71
2019-04-26T14:22:32.214Z,100541.61
2019-04-26T14:25:07.421Z,100550.83
2019-04-26T14:27:45.436Z,100550.27
2019-04-26T14:30:18.163Z,100550.00
2019-04-26T14:32:49.450Z,100570.61
2019-04-26T14:35:20.707Z,100573.96
2019-04-26T14:37:51.972Z,100565.75
2019-04-26T14:40:23.293Z,100565.95
2019-04-26T14:43:06.083Z,100567.22
2019-04-26T14:45:27.455Z,100567.53
2019-04-26T14:48:00.287Z,100568.77
2019-04-26T14:50:33.338Z,100579.39
2019-04-26T14:53:04.770Z,100591.22
2019-04-26T14:55:36.115Z,100588.94
2019-04-26T14:58:07.412Z,100600.81
2019-04-26T15:00:40.302Z,100602.81
2019-04-26T15:03:26.546Z,100603.13
2019-04-26T15:06:05.885Z,100595.14
2019-04-26T15:08:40.514Z,100604.95
2019-04-26T15:11:10.101Z,100614.40
2019-04-26T15:13:43.802Z,100626.63
2019-04-26T15:16:14.529Z,100620.22
2019-04-26T15:18:45.891Z,100603.78
2019-04-26T15:21:17.480Z,100594.70
2019-04-26T15:23:48.886Z,100617.48
2019-04-26T15:26:24.267Z,100623.48
2019-04-26T15:28:53.093Z,100625.94
2019-04-26T15:31:25.000Z,100620.42
2019-04-26T15:33:56.239Z,100619.77
2019-04-26T15:36:27.459Z,100622.17
2019-04-26T15:38:59.663Z,100641.81
2019-04-26T15:41:38.826Z,100643.62
2019-04-26T15:44:28.877Z,100650.66
2019-04-26T15:47:37.599Z,100663.47
2019-04-26T15:50:13.264Z,100659.14
2019-04-26T15:52:44.462Z,100655.11
2019-04-26T15:55:15.657Z,100661.54
2019-04-26T15:57:46.860Z,100657.38
2019-04-26T16:00:18.794Z,100661.17
2019-04-26T16:02:50.055Z,100675.58
2019-04-26T16:05:24.344Z,100664.66
2019-04-26T16:07:57.291Z,100656.41
2019-04-26T16:10:29.611Z,100659.84
2019-04-26T16:13:15.814Z,100676.05
2019-04-26T16:15:33.594Z,100679.55
2019-04-26T16:18:05.098Z,100692.73
2019-04-26T16:20:37.648Z,100685.09
2019-04-26T16:23:13.129Z,100681.33
2019-04-26T16:25:44.126Z,100666.50
2019-04-26T16:28:44.415Z,100677.41
2019-04-26T16:31:47.217Z,100688.30
2019-04-26T16:34:19.098Z,100683.98
2019-04-26T16:36:50.566Z,100674.84
2019-04-26T16:39:23.819Z,100693.16
2019-04-26T16:41:54.735Z,100685.86
2019-04-26T16:44:29.989Z,100691.47
2019-04-26T16:47:03.646Z,100696.22
2019-04-26T16:49:35.201Z,100714.97
2019-04-26T16:52:06.980Z,100710.84
2019-04-26T16:54:37.942Z,100705.73
2019-04-26T16:57:11.294Z,100705.55
2019-04-26T17:02:15.983Z,100703.69
2019-04-26T17:04:48.166Z,100703.61
2019-04-26T17:07:23.114Z,100708.04
2019-04-26T17:09:50.310Z,100702.86
2019-04-26T17:09:59.043Z,100716.83
2019-04-26T17:12:26.332Z,100716.74
2019-04-26T17:14:57.624Z,100712.16
2019-04-26T17:17:28.827Z,100720.33
2019-04-26T17:19:59.970Z,100736.68
2019-04-26T17:22:45.264Z,100739.50
2019-04-26T17:25:33.580Z,100738.47
2019-04-26T17:28:04.758Z,100732.06
2019-04-26T17:30:40.998Z,100738.55
2019-04-26T17:33:09.073Z,100741.58
2019-04-26T17:35:40.962Z,100751.17
2019-04-26T17:38:13.290Z,100764.25
2019-04-26T17:40:46.249Z,100767.34
2019-04-26T17:43:17.818Z,100769.50
2019-04-26T17:45:49.283Z,100746.45
2019-04-26T17:48:21.168Z,100731.09
2019-04-26T17:50:52.754Z,100726.31
2019-04-26T17:53:30.696Z,100734.25
2019-04-26T17:55:56.962Z,100734.25
2019-04-26T17:58:32.398Z,100738.55
2019-04-26T18:01:03.735Z,100749.41
2019-04-26T18:03:34.326Z,100768.80
2019-04-26T18:06:09.568Z,100775.23
2019-04-26T18:08:47.585Z,100775.09
2019-04-26T18:11:19.236Z,100785.08
2019-04-26T18:13:47.286Z,100789.83
2019-04-26T18:16:22.417Z,100792.43
2019-04-26T18:19:04.491Z,100789.23
2019-04-26T18:22:03.800Z,100781.62
2019-04-26T18:24:35.198Z,100781.52
2019-04-26T18:27:06.490Z,100784.58
2019-04-26T18:29:37.733Z,100783.20
2019-04-26T18:32:09.021Z,100776.31
2019-04-26T18:34:42.888Z,100767.97
2019-04-26T18:37:14.372Z,100759.53
2019-04-26T18:39:45.671Z,100739.46
2019-04-26T18:42:17.019Z,100749.03
2019-04-26T18:44:48.941Z,100758.05
2019-04-26T18:47:27.953Z,100756.39
2019-04-26T18:49:59.230Z,100765.26
2019-04-26T18:52:33.072Z,100788.39
2019-04-26T18:55:13.025Z,100806.70
2019-04-26T18:57:47.402Z,100816.94
2019-04-26T19:00:33.682Z,100832.07
2019-04-26T19:03:05.624Z,100866.05
2019-04-26T19:05:36.858Z,100907.59
2019-04-26T19:08:09.848Z,100929.77
2019-04-26T19:10:43.168Z,100943.45
2019-04-26T19:13:32.129Z,100948.18
2019-04-26T19:16:16.619Z,100955.99
2019-04-26T19:18:58.435Z,100950.66
2019-04-26T19:21:39.582Z,100954.43
2019-04-26T19:24:17.255Z,100950.69
2019-04-26T19:26:49.232Z,100947.98
2019-04-26T19:29:18.590Z,100949.53
2019-04-26T19:31:49.622Z,100944.11
2019-04-26T19:34:21.875Z,100932.80
2019-04-26T19:36:56.287Z,100934.16
2019-04-26T19:39:32.409Z,100936.66
2019-04-26T19:41:59.879Z,100940.89
2019-04-26T19:44:31.674Z,100943.86
2019-04-26T19:47:22.553Z,100934.06
2019-04-26T19:50:03.086Z,100949.47
2019-04-26T19:52:42.408Z,100952.45
2019-04-26T19:55:31.751Z,100947.52
2019-04-26T19:58:09.778Z,100952.72
2019-04-26T20:00:43.375Z,100954.95
2019-04-26T20:03:15.370Z,100947.05
2019-04-26T20:05:46.252Z,100949.81
2019-04-26T20:08:17.703Z,100954.27
2019-04-26T20:10:48.949Z,100935.38
2019-04-26T20:13:22.014Z,100929.77
2019-04-26T20:15:57.336Z,100922.31
2019-04-26T20:18:27.128Z,100928.33
2019-04-26T20:20:59.118Z,100931.36
2019-04-26T20:23:33.609Z,100913.83
2019-04-26T20:26:07.238Z,100914.23
2019-04-26T20:28:37.534Z,100896.30
2019-04-26T20:31:28.017Z,100890.52
2019-04-26T20:33:59.355Z,100907.17
2019-04-26T20:36:33.717Z,100902.58
2019-04-26T20:39:05.072Z,100906.47
2019-04-26T20:41:36.721Z,100900.36
2019-04-26T20:44:10.060Z,100900.86
2019-04-26T20:46:42.600Z,100900.69
2019-04-26T20:49:13.878Z,100886.00
2019-04-26T20:51:46.195Z,100885.36
2019-04-26T20:54:18.315Z,100886.69
2019-04-26T20:56:52.477Z,100893.61
2019-04-26T20:59:23.643Z,100894.92
2019-04-26T21:02:03.292Z,100892.22
2019-04-26T21:04:38.042Z,100908.16
2019-04-26T21:07:06.791Z,100916.98
2019-04-26T21:09:36.412Z,100924.88
2019-04-26T21:12:15.912Z,100933.70
2019-04-26T21:14:44.549Z,100944.23
2019-04-26T21:17:19.448Z,100961.77
2019-04-26T21:19:49.956Z,100965.66
2019-04-26T21:22:25.349Z,100970.92
2019-04-26T21:24:59.031Z,100974.47
2019-04-26T21:27:40.658Z,100979.03
2019-04-26T21:30:19.271Z,100985.28
2019-04-26T21:33:08.222Z,100982.37
2019-04-26T21:35:45.453Z,100996.53
2019-04-26T21:38:29.616Z,100997.11
2019-04-26T21:41:26.614Z,100989.13
2019-04-26T21:43:57.878Z,101004.68
2019-04-26T21:46:29.255Z,101008.97
2019-04-26T21:49:00.551Z,101008.05
2019-04-26T21:51:33.850Z,101010.55
2019-04-26T21:54:04.792Z,100998.63
2019-04-26T21:56:35.993Z,100991.70
2019-04-26T21:59:07.252Z,100990.86
2019-04-26T22:01:38.614Z,100989.20
2019-04-26T22:04:13.197Z,100988.70
2019-04-26T22:06:44.769Z,100977.41
2019-04-26T22:09:28.557Z,100977.21
2019-04-26T22:12:00.355Z,100972.11
2019-04-26T22:14:34.489Z,100976.13
2019-04-26T22:17:34.817Z,100974.88
2019-04-26T22:20:16.983Z,100974.14
2019-04-26T22:23:18.092Z,100969.81
2019-04-26T22:25:51.112Z,100974.61
2019-04-26T22:28:23.525Z,100985.56
2019-04-26T22:30:59.212Z,100991.00
2019-04-26T22:33:30.875Z,100995.02
2019-04-26T22:36:01.105Z,100991.47
2019-04-26T22:38:33.995Z,100984.88
2019-04-26T22:41:06.628Z,100984.95
2019-04-26T22:43:45.567Z,100982.24
2019-04-26T22:46:46.581Z,100987.92
2019-04-26T22:49:10.791Z,100985.80
2019-04-26T22:51:43.542Z,100966.94
2019-04-26T22:54:14.999Z,100966.94
2019-04-26T22:56:46.229Z,100962.54
2019-04-26T22:59:17.501Z,100953.95
2019-04-26T23:01:49.043Z,100938.14
2019-04-26T23:04:23.489Z,100934.31
2019-04-26T23:06:56.205Z,100931.67
2019-04-26T23:09:26.492Z,100938.09
2019-04-26T23:12:04.478Z,100928.98
2019-04-26T23:14:55.152Z,100926.58
2019-04-26T23:17:48.120Z,100927.18
2019-04-26T23:20:42.662Z,100919.20
2019-04-26T23:23:15.415Z,100905.95
2019-04-26T23:25:46.687Z,100887.91
2019-04-26T23:28:17.931Z,100891.11
2019-04-26T23:30:49.202Z,100897.77
2019-04-26T23:33:23.806Z,100906.99
2019-04-26T23:35:55.315Z,100926.77
2019-04-26T23:38:26.513Z,100940.37
2019-04-26T23:41:01.092Z,100941.28
2019-04-26T23:43:32.804Z,100946.95
2019-04-26T23:46:04.205Z,100940.88
2019-04-26T23:48:35.451Z,100930.89
2019-04-26T23:51:08.445Z,100934.03
2019-04-26T23:53:39.886Z,100935.01
2019-04-26T23:56:16.239Z,100936.80
2019-04-26T23:58:45.611Z,100934.95
